Time;durP1;ratioP1;P1;durP2;ratioP2;P2;SDS_P1;SDS_P2;PMS_P1;PMS_P2;Temp;Humidity;BMP_temperature;BMP_pressure;BME280_temperature;BME280_humidity;BME280_pressure;Samples;Min_cycle;Max_cycle;Signal;HPM_P1;HPM_P2
2021/12/28 00:00:42;;;;;;;50.28;21.67;;;0.30;80.30;;;;;;4159406;28;20079;-78
2021/12/28 00:02:45;;;;;;;53.20;21.38;;;0.30;80.10;;;;;;4181796;28;20052;-79
2021/12/28 00:04:46;;;;;;;50.38;21.88;;;0.30;80.00;;;;;;4180210;28;20092;-79
2021/12/28 00:06:46;;;;;;;55.33;22.38;;;0.40;80.00;;;;;;4183883;28;20068;-79
2021/12/28 00:08:47;;;;;;;53.03;21.38;;;0.40;79.90;;;;;;4163944;28;20048;-78
2021/12/28 00:10:48;;;;;;;54.05;23.38;;;0.40;79.70;;;;;;4182237;28;20324;-79
2021/12/28 00:12:49;;;;;;;48.53;21.60;;;0.40;79.70;;;;;;4178763;28;20577;-79
2021/12/28 00:15:03;;;;;;;54.17;21.48;;;0.40;79.70;;;;;;4162492;28;20033;-78
2021/12/28 00:19:23;;;;;;;59.50;22.00;;;0.40;79.80;;;;;;4195660;28;19915;-78
2021/12/28 00:21:23;;;;;;;62.33;23.98;;;0.40;79.60;;;;;;4163923;28;20096;-79
2021/12/28 00:23:28;;;;;;;53.97;23.48;;;0.40;79.40;;;;;;4175500;28;20041;-78
2021/12/28 00:25:29;;;;;;;59.85;24.83;;;0.40;79.40;;;;;;4174381;28;20285;-78
2021/12/28 00:27:30;;;;;;;56.58;22.17;;;0.40;79.60;;;;;;4160220;28;20042;-78
2021/12/28 00:29:31;;;;;;;53.00;21.23;;;0.40;79.60;;;;;;4193812;28;20599;-79
2021/12/28 00:31:31;;;;;;;57.03;22.55;;;0.40;79.60;;;;;;4185028;28;20028;-78
2021/12/28 00:33:32;;;;;;;56.30;22.27;;;0.40;79.60;;;;;;4194008;28;20040;-78
2021/12/28 00:35:35;;;;;;;51.90;20.67;;;0.40;79.60;;;;;;4158960;28;20093;-79
2021/12/28 00:37:36;;;;;;;46.47;20.08;;;0.40;79.60;;;;;;4128406;28;20109;-78
2021/12/28 00:39:37;;;;;;;55.17;21.67;;;0.40;79.50;;;;;;4143257;28;20092;-79
2021/12/28 00:41:39;;;;;;;53.03;22.38;;;0.40;79.40;;;;;;4182968;28;20847;-79
2021/12/28 00:43:40;;;;;;;53.40;21.95;;;0.40;79.40;;;;;;4175581;28;20032;-79
2021/12/28 00:45:41;;;;;;;56.20;22.98;;;0.40;79.30;;;;;;4178290;28;20065;-79
2021/12/28 00:47:42;;;;;;;55.92;21.65;;;0.40;79.40;;;;;;4160729;28;20022;-79
2021/12/28 00:49:42;;;;;;;57.65;21.77;;;0.50;79.40;;;;;;4153906;28;20114;-79
2021/12/28 00:51:43;;;;;;;54.85;21.45;;;0.50;79.40;;;;;;4174788;28;20033;-78
2021/12/28 00:53:44;;;;;;;51.08;21.98;;;0.40;79.30;;;;;;4184756;28;20055;-78
2021/12/28 00:55:44;;;;;;;53.05;21.48;;;0.50;79.30;;;;;;4166121;28;20037;-77
2021/12/28 00:57:46;;;;;;;57.42;21.77;;;0.50;79.30;;;;;;4148846;28;20083;-77
2021/12/28 00:59:48;;;;;;;52.95;21.33;;;0.50;79.30;;;;;;4171918;28;20036;-78
2021/12/28 01:01:48;;;;;;;50.92;21.75;;;0.50;79.30;;;;;;4187079;28;20036;-78
2021/12/28 01:03:49;;;;;;;52.35;21.58;;;0.50;79.30;;;;;;4186955;28;20466;-78
2021/12/28 01:05:52;;;;;;;49.80;20.98;;;0.50;79.30;;;;;;4154055;28;20033;-77
2021/12/28 01:07:53;;;;;;;49.00;21.17;;;0.50;79.20;;;;;;4169557;28;20463;-77
2021/12/28 01:09:54;;;;;;;49.38;20.45;;;0.50;79.20;;;;;;4172616;28;20056;-77
2021/12/28 01:11:55;;;;;;;54.90;23.38;;;0.50;79.20;;;;;;4187261;28;20376;-78
2021/12/28 01:13:56;;;;;;;57.30;22.80;;;0.50;79.20;;;;;;4137022;28;20049;-78
2021/12/28 01:15:57;;;;;;;49.58;21.23;;;0.50;79.80;;;;;;4186291;28;20048;-77
2021/12/28 01:17:58;;;;;;;55.78;22.00;;;0.50;79.10;;;;;;4137326;28;20045;-77
2021/12/28 01:20:00;;;;;;;54.05;22.02;;;0.50;79.10;;;;;;4187107;28;20069;-77
2021/12/28 01:22:01;;;;;;;50.33;20.02;;;0.50;79.10;;;;;;4166074;28;20371;-77
2021/12/28 01:24:05;;;;;;;46.38;20.60;;;0.50;79.10;;;;;;4167736;28;20441;-77
2021/12/28 01:26:06;;;;;;;52.45;20.48;;;0.50;79.20;;;;;;4184183;28;20040;-77
2021/12/28 01:28:07;;;;;;;58.55;21.95;;;0.50;79.20;;;;;;4172460;28;20037;-77
2021/12/28 01:30:09;;;;;;;54.95;21.65;;;0.50;79.20;;;;;;4173071;28;20198;-78
2021/12/28 01:32:10;;;;;;;51.30;21.38;;;0.50;79.30;;;;;;4166461;28;20045;-77
2021/12/28 01:34:11;;;;;;;52.75;22.40;;;0.50;79.30;;;;;;4167231;28;20021;-77
2021/12/28 01:36:11;;;;;;;45.10;20.33;;;0.50;79.30;;;;;;4183409;28;20461;-77
2021/12/28 01:38:12;;;;;;;54.38;20.90;;;0.60;79.30;;;;;;4185304;28;20127;-77
2021/12/28 01:40:16;;;;;;;52.97;21.38;;;0.60;79.30;;;;;;4152248;28;20033;-77
2021/12/28 01:42:16;;;;;;;52.90;21.48;;;0.60;79.30;;;;;;4163577;28;20063;-77
2021/12/28 01:44:17;;;;;;;51.15;20.40;;;0.60;79.30;;;;;;4183523;28;20037;-78
2021/12/28 01:46:18;;;;;;;47.05;21.27;;;0.60;79.30;;;;;;4139427;28;20365;-77
2021/12/28 01:48:31;;;;;;;48.47;20.67;;;0.50;79.20;;;;;;4154966;28;20403;-77
2021/12/28 01:50:32;;;;;;;50.92;21.63;;;0.60;79.20;;;;;;4169085;28;20032;-77
2021/12/28 01:52:33;;;;;;;54.10;21.58;;;0.60;79.30;;;;;;4151589;28;20033;-77
2021/12/28 01:54:33;;;;;;;53.65;21.25;;;0.60;79.30;;;;;;4166560;28;20388;-77
2021/12/28 01:56:38;;;;;;;49.72;20.98;;;0.60;79.40;;;;;;4167709;28;20029;-77
2021/12/28 01:58:39;;;;;;;54.22;21.70;;;0.60;79.40;;;;;;4160461;28;20084;-77
2021/12/28 02:00:41;;;;;;;50.90;20.42;;;0.60;79.40;;;;;;4162834;28;20036;-77
2021/12/28 02:02:41;;;;;;;52.47;21.13;;;0.60;79.40;;;;;;4169832;28;20102;-77
2021/12/28 02:04:42;;;;;;;47.67;20.85;;;0.60;79.40;;;;;;4171300;28;20348;-77
2021/12/28 02:06:43;;;;;;;51.60;20.85;;;0.60;79.40;;;;;;4187922;28;20025;-77
2021/12/28 02:08:43;;;;;;;50.70;21.63;;;0.60;79.30;;;;;;4153700;28;20402;-77
2021/12/28 02:10:45;;;;;;;51.40;21.58;;;0.60;79.30;;;;;;4170255;28;20094;-77
2021/12/28 02:12:45;;;;;;;51.35;22.17;;;0.60;79.30;;;;;;4169281;28;20032;-77
2021/12/28 02:14:46;;;;;;;56.65;22.55;;;0.70;79.40;;;;;;4186022;28;20513;-77
2021/12/28 02:16:47;;;;;;;54.75;21.55;;;0.60;79.40;;;;;;4169587;28;20064;-77
2021/12/28 02:18:47;;;;;;;55.35;21.88;;;0.60;79.50;;;;;;4186912;28;20102;-77
2021/12/28 02:20:48;;;;;;;55.25;21.73;;;0.60;79.50;;;;;;4155130;28;20059;-77
2021/12/28 02:22:49;;;;;;;53.15;22.33;;;0.60;79.50;;;;;;4169951;28;20029;-77
2021/12/28 02:24:49;;;;;;;55.65;22.05;;;0.60;79.50;;;;;;4180017;28;20037;-77
2021/12/28 02:26:50;;;;;;;53.55;20.83;;;0.60;79.60;;;;;;4184034;28;20029;-77
2021/12/28 02:28:50;;;;;;;59.85;22.60;;;0.60;79.60;;;;;;4136840;28;20030;-77
2021/12/28 02:30:52;;;;;;;53.67;20.80;;;0.60;79.60;;;;;;4155437;28;20506;-77
2021/12/28 02:32:53;;;;;;;53.45;22.45;;;0.60;79.70;;;;;;4167644;28;20025;-77
2021/12/28 02:34:54;;;;;;;50.33;21.52;;;0.60;79.80;;;;;;4169389;28;20526;-77
2021/12/28 02:36:55;;;;;;;56.75;22.42;;;0.60;79.80;;;;;;4154211;28;20515;-77
2021/12/28 02:38:55;;;;;;;54.40;22.83;;;0.60;79.80;;;;;;4184403;28;20095;-77
2021/12/28 02:40:57;;;;;;;57.17;21.45;;;0.60;79.80;;;;;;4151390;28;20059;-77
2021/12/28 02:42:58;;;;;;;50.05;22.55;;;0.60;80.00;;;;;;4170693;28;20038;-77
2021/12/28 02:45:09;;;;;;;55.83;23.75;;;0.60;80.00;;;;;;4169200;28;20059;-77
2021/12/28 02:47:16;;;;;;;51.58;22.27;;;0.60;80.10;;;;;;4188055;28;20116;-77
2021/12/28 02:49:17;;;;;;;49.80;21.52;;;0.60;80.10;;;;;;4173261;28;20563;-77
2021/12/28 02:51:17;;;;;;;52.85;21.35;;;0.60;80.10;;;;;;4169306;28;20105;-77
2021/12/28 02:53:18;;;;;;;56.65;22.33;;;0.60;80.10;;;;;;4170925;28;20032;-77
2021/12/28 02:55:20;;;;;;;52.53;21.67;;;0.70;80.10;;;;;;4170917;28;20025;-77
2021/12/28 02:57:21;;;;;;;53.95;22.50;;;0.60;80.00;;;;;;4187201;28;20017;-77
2021/12/28 02:59:21;;;;;;;52.63;22.48;;;0.70;80.90;;;;;;4169962;28;20089;-78
2021/12/28 03:01:24;;;;;;;47.65;20.88;;;0.60;80.00;;;;;;4154480;28;20116;-78
2021/12/28 03:03:26;;;;;;;60.05;24.92;;;0.60;80.20;;;;;;4186398;28;20047;-78
2021/12/28 03:05:27;;;;;;;62.13;23.60;;;0.60;80.90;;;;;;4171018;28;20029;-78
2021/12/28 03:07:31;;;;;;;56.33;21.60;;;0.60;80.30;;;;;;4186541;28;20042;-78
2021/12/28 03:09:31;;;;;;;63.97;23.88;;;0.60;80.30;;;;;;4169414;28;20037;-78
2021/12/28 03:11:32;;;;;;;57.72;24.10;;;0.60;80.30;;;;;;4184366;28;20159;-78
2021/12/28 03:13:44;;;;;;;58.30;23.70;;;0.60;80.30;;;;;;4168606;28;20454;-78
2021/12/28 03:15:44;;;;;;;58.42;23.10;;;0.60;80.40;;;;;;4168715;28;20041;-78
2021/12/28 03:17:45;;;;;;;56.38;23.90;;;0.60;80.50;;;;;;4169046;28;20029;-77
2021/12/28 03:19:46;;;;;;;50.13;21.95;;;0.60;80.50;;;;;;4187696;28;20063;-78
2021/12/28 03:21:46;;;;;;;54.05;22.38;;;0.60;80.50;;;;;;4187717;28;20729;-78
2021/12/28 03:23:47;;;;;;;58.42;24.02;;;0.60;80.50;;;;;;4186242;28;20033;-78
2021/12/28 03:25:48;;;;;;;57.97;23.75;;;0.60;80.50;;;;;;4170017;28;20037;-78
2021/12/28 03:27:48;;;;;;;54.42;22.17;;;0.60;80.50;;;;;;4186478;28;20413;-78
2021/12/28 03:29:49;;;;;;;48.50;21.33;;;0.60;80.50;;;;;;4157252;28;20029;-78
2021/12/28 03:31:50;;;;;;;56.28;23.55;;;0.60;80.30;;;;;;4186752;28;20051;-78
2021/12/28 03:33:52;;;;;;;53.83;22.23;;;0.50;80.20;;;;;;4173329;28;20449;-78
2021/12/28 03:35:52;;;;;;;61.08;23.00;;;0.50;80.30;;;;;;4186766;28;20036;-77
2021/12/28 03:37:53;;;;;;;56.65;22.95;;;0.50;80.30;;;;;;4152822;28;20033;-77
2021/12/28 03:39:53;;;;;;;59.28;22.27;;;0.50;80.30;;;;;;4154459;28;20128;-77
2021/12/28 03:41:54;;;;;;;50.17;22.42;;;0.50;80.30;;;;;;4170419;28;20041;-78
2021/12/28 03:43:55;;;;;;;56.65;23.70;;;0.50;80.50;;;;;;4175376;28;20228;-78
2021/12/28 03:45:55;;;;;;;58.17;22.55;;;0.50;80.60;;;;;;4172314;28;20036;-78
2021/12/28 03:47:56;;;;;;;55.60;22.55;;;0.50;80.60;;;;;;4190326;28;20030;-79
2021/12/28 03:49:57;;;;;;;55.85;21.77;;;0.50;80.70;;;;;;4188434;28;20415;-79
2021/12/28 03:51:58;;;;;;;54.90;22.73;;;0.50;80.70;;;;;;4156712;28;20116;-78
2021/12/28 03:53:58;;;;;;;48.50;21.13;;;0.50;80.60;;;;;;4188040;28;20447;-78
2021/12/28 03:55:59;;;;;;;53.53;22.52;;;0.50;80.60;;;;;;4187153;28;20067;-78
2021/12/28 03:58:02;;;;;;;53.67;23.38;;;0.50;80.60;;;;;;4151892;28;20403;-78
2021/12/28 04:00:04;;;;;;;55.85;21.88;;;0.50;80.60;;;;;;4185794;28;20075;-78
2021/12/28 04:02:05;;;;;;;49.55;22.92;;;0.50;80.70;;;;;;4153684;28;20041;-78
2021/12/28 04:04:05;;;;;;;57.75;23.17;;;0.50;80.80;;;;;;4153267;28;20071;-78
2021/12/28 04:06:10;;;;;;;51.05;23.02;;;0.50;80.90;;;;;;4166317;28;20029;-78
2021/12/28 04:08:19;;;;;;;55.55;23.15;;;0.50;81.00;;;;;;4184817;28;20504;-78
2021/12/28 04:10:28;;;;;;;54.33;22.77;;;0.50;81.00;;;;;;4168800;28;20032;-78
2021/12/28 04:12:29;;;;;;;52.85;21.90;;;0.50;81.00;;;;;;4187532;28;20039;-78
2021/12/28 04:14:30;;;;;;;51.08;22.85;;;0.50;80.90;;;;;;4184051;28;20040;-78
2021/12/28 04:16:30;;;;;;;51.33;21.73;;;0.50;80.80;;;;;;4186300;28;20464;-78
2021/12/28 04:18:31;;;;;;;56.80;21.75;;;0.50;80.90;;;;;;4185860;28;20127;-78
2021/12/28 04:20:32;;;;;;;56.33;22.85;;;0.50;80.80;;;;;;4186764;28;20087;-78
2021/12/28 04:22:32;;;;;;;54.92;22.05;;;0.50;80.80;;;;;;4153848;28;20113;-77
2021/12/28 04:24:33;;;;;;;53.05;22.88;;;0.50;80.80;;;;;;4186180;28;20052;-78
2021/12/28 04:26:34;;;;;;;57.85;21.65;;;0.50;80.90;;;;;;4168669;28;20121;-78
2021/12/28 04:28:34;;;;;;;52.80;22.40;;;0.50;80.90;;;;;;4183616;28;20427;-78
2021/12/28 04:30:35;;;;;;;52.72;20.98;;;0.50;80.90;;;;;;4167551;28;20108;-78
2021/12/28 04:32:36;;;;;;;50.40;20.25;;;0.50;80.90;;;;;;4183449;28;20129;-78
2021/12/28 04:34:36;;;;;;;49.53;20.48;;;0.50;80.90;;;;;;4176929;28;20024;-78
2021/12/28 04:36:37;;;;;;;49.70;20.23;;;0.60;81.00;;;;;;4170203;28;20021;-78
2021/12/28 04:38:37;;;;;;;58.85;23.77;;;0.60;80.90;;;;;;4166767;28;20029;-78
2021/12/28 04:40:39;;;;;;;51.33;21.77;;;0.70;80.90;;;;;;4139918;28;20100;-78
2021/12/28 04:42:41;;;;;;;52.75;21.08;;;0.70;81.00;;;;;;4136385;28;20515;-78
2021/12/28 04:44:42;;;;;;;52.22;21.55;;;0.70;80.90;;;;;;4138289;28;20021;-78
2021/12/28 04:46:43;;;;;;;60.78;23.88;;;0.70;80.90;;;;;;4150846;28;20492;-78
2021/12/28 04:48:44;;;;;;;60.33;22.98;;;0.70;80.90;;;;;;4156807;28;20025;-78
2021/12/28 04:50:45;;;;;;;53.75;21.95;;;0.70;80.80;;;;;;4122873;28;20336;-78
2021/12/28 04:52:50;;;;;;;52.20;22.08;;;0.70;80.80;;;;;;4185244;22;20041;-78
2021/12/28 04:54:53;;;;;;;54.40;23.13;;;0.80;80.90;;;;;;4157756;28;20061;-78
2021/12/28 04:56:57;;;;;;;53.70;22.50;;;0.80;80.80;;;;;;4156744;28;20100;-78
2021/12/28 04:59:00;;;;;;;56.50;23.75;;;0.70;80.70;;;;;;4185778;28;20040;-78
2021/12/28 05:01:01;;;;;;;53.40;21.25;;;0.70;80.70;;;;;;4139241;28;20054;-78
2021/12/28 05:03:08;;;;;;;61.13;24.80;;;0.70;80.70;;;;;;4140194;23;20066;-78
2021/12/28 05:05:13;;;;;;;51.83;22.38;;;0.80;80.80;;;;;;4095163;28;20082;-78
2021/12/28 05:07:14;;;;;;;49.55;21.40;;;0.70;80.60;;;;;;4124085;28;20508;-79
2021/12/28 05:09:18;;;;;;;54.17;22.98;;;0.80;80.70;;;;;;4112211;28;20023;-79
2021/12/28 05:11:19;;;;;;;62.40;23.80;;;0.80;80.60;;;;;;4098976;28;20033;-79
2021/12/28 05:13:21;;;;;;;52.95;22.65;;;0.80;80.60;;;;;;4108210;28;20027;-79
2021/12/28 05:15:24;;;;;;;54.30;21.98;;;0.90;80.60;;;;;;4123673;28;20133;-80
2021/12/28 05:17:29;;;;;;;54.65;22.52;;;0.80;80.50;;;;;;4105514;28;20077;-79
2021/12/28 05:19:30;;;;;;;56.90;22.75;;;0.80;80.40;;;;;;4106704;28;20027;-79
2021/12/28 05:21:34;;;;;;;53.10;22.30;;;0.80;80.50;;;;;;4091878;28;20035;-80
2021/12/28 05:23:34;;;;;;;;;;;0.80;80.30;;;;;;4110061;28;20034;-79
2021/12/28 05:25:35;;;;;;;51.97;21.67;;;0.90;80.30;;;;;;4110297;28;19982;-79
2021/12/28 05:27:36;;;;;;;55.28;20.90;;;0.90;80.20;;;;;;4115391;28;20026;-79
2021/12/28 05:29:40;;;;;;;48.17;20.00;;;0.80;80.10;;;;;;4089958;28;20123;-79
2021/12/28 05:31:41;;;;;;;55.08;23.42;;;0.90;80.20;;;;;;4106387;28;20042;-80
2021/12/28 05:33:42;;;;;;;57.03;23.60;;;0.80;80.00;;;;;;4126186;28;20089;-80
2021/12/28 05:35:43;;;;;;;58.78;22.52;;;0.90;80.00;;;;;;4112239;28;20038;-79
2021/12/28 05:37:44;;;;;;;53.15;21.65;;;0.90;80.00;;;;;;4099525;28;20030;-79
2021/12/28 05:39:45;;;;;;;52.13;22.17;;;0.80;79.90;;;;;;4115179;28;20039;-79
2021/12/28 05:41:46;;;;;;;52.60;23.23;;;0.90;80.10;;;;;;4129673;28;20049;-79
2021/12/28 05:43:47;;;;;;;52.85;22.52;;;0.80;79.90;;;;;;4094896;29;20034;-79
2021/12/28 05:45:47;;;;;;;53.53;22.17;;;0.90;79.90;;;;;;4098107;28;20020;-79
2021/12/28 05:47:48;;;;;;;53.13;22.33;;;0.90;79.90;;;;;;4124305;28;20098;-79
2021/12/28 05:49:49;;;;;;;52.28;23.00;;;0.90;79.90;;;;;;4126011;28;20040;-79
2021/12/28 05:51:49;;;;;;;57.80;21.92;;;0.90;79.90;;;;;;4123879;28;20065;-79
2021/12/28 05:53:50;;;;;;;55.83;22.27;;;0.90;79.80;;;;;;4123553;28;20114;-79
2021/12/28 05:55:50;;;;;;;53.97;22.67;;;0.90;79.80;;;;;;4125949;28;20049;-79
2021/12/28 05:57:51;;;;;;;57.78;22.10;;;0.90;79.70;;;;;;4126673;28;20104;-79
2021/12/28 05:59:52;;;;;;;57.08;23.95;;;0.90;79.60;;;;;;4141857;28;20029;-79
2021/12/28 06:01:52;;;;;;;53.42;23.05;;;0.90;79.60;;;;;;4124067;28;20042;-79
2021/12/28 06:03:53;;;;;;;52.58;20.75;;;0.90;79.60;;;;;;4127816;28;20030;-79
2021/12/28 06:05:54;;;;;;;50.25;21.55;;;0.90;79.50;;;;;;4129488;28;20118;-79
2021/12/28 06:07:54;;;;;;;52.85;21.77;;;1.00;79.60;;;;;;4127660;28;20118;-79
2021/12/28 06:09:55;;;;;;;54.70;23.10;;;0.90;79.50;;;;;;4126773;28;20026;-79
2021/12/28 06:11:56;;;;;;;66.13;23.63;;;0.90;79.40;;;;;;4142711;28;20116;-79
2021/12/28 06:13:56;;;;;;;54.03;23.58;;;0.90;79.40;;;;;;4143646;28;20167;-79
2021/12/28 06:15:57;;;;;;;55.13;22.60;;;0.90;79.50;;;;;;4128487;28;20030;-78
2021/12/28 06:17:58;;;;;;;57.30;23.50;;;1.00;79.40;;;;;;4138532;28;20034;-78
2021/12/28 06:19:58;;;;;;;52.80;21.45;;;0.90;79.40;;;;;;4124050;28;20035;-79
2021/12/28 06:21:59;;;;;;;58.80;22.63;;;1.00;79.40;;;;;;4143138;28;20140;-79
2021/12/28 06:24:00;;;;;;;53.13;23.95;;;0.90;80.10;;;;;;4126894;28;20034;-79
2021/12/28 06:26:01;;;;;;;56.90;23.98;;;1.00;79.40;;;;;;4121994;28;20063;-79
2021/12/28 06:28:02;;;;;;;51.83;22.77;;;0.90;79.30;;;;;;4122232;28;20053;-78
2021/12/28 06:30:03;;;;;;;60.75;24.95;;;1.00;79.30;;;;;;4125687;28;20022;-78
2021/12/28 06:32:04;;;;;;;59.90;23.10;;;1.00;79.30;;;;;;4125348;28;20034;-78
2021/12/28 06:34:06;;;;;;;58.05;23.55;;;0.90;80.00;;;;;;4125306;28;20145;-78
2021/12/28 06:36:07;;;;;;;55.43;24.20;;;0.90;79.20;;;;;;4124006;28;20031;-78
2021/12/28 06:38:08;;;;;;;59.78;24.63;;;0.90;79.10;;;;;;4124850;28;20035;-78
2021/12/28 06:40:09;;;;;;;61.45;25.52;;;0.90;79.20;;;;;;4142116;28;20064;-79
2021/12/28 06:42:10;;;;;;;58.13;23.48;;;0.90;79.10;;;;;;4122256;28;20515;-78
2021/12/28 06:44:10;;;;;;;61.80;25.25;;;0.80;79.20;;;;;;4129309;28;20030;-78
2021/12/28 06:46:11;;;;;;;56.13;24.75;;;0.80;79.20;;;;;;4121728;28;20102;-78
2021/12/28 06:48:12;;;;;;;62.35;24.85;;;0.80;79.40;;;;;;4120878;28;20034;-79
2021/12/28 06:50:23;;;;;;;56.17;23.55;;;0.80;79.50;;;;;;4084257;28;20478;-78
2021/12/28 06:52:28;;;;;;;61.13;25.30;;;0.80;79.50;;;;;;4107890;28;20035;-79
2021/12/28 06:54:44;;;;;;;62.53;25.17;;;0.90;79.60;;;;;;4094433;28;20027;-78
2021/12/28 06:56:51;;;;;;;59.78;24.27;;;0.70;79.50;;;;;;4087762;28;20086;-78
2021/12/28 06:58:55;;;;;;;56.83;24.42;;;0.80;79.60;;;;;;4106907;28;20113;-78
2021/12/28 07:01:04;;;;;;;60.92;23.90;;;0.70;79.70;;;;;;4106173;28;20035;-78
2021/12/28 07:03:05;;;;;;;63.78;26.58;;;0.70;79.60;;;;;;4093435;28;20581;-78
2021/12/28 07:05:06;;;;;;;62.05;26.73;;;0.70;79.70;;;;;;4123890;28;20053;-78
2021/12/28 07:07:10;;;;;;;65.88;25.60;;;0.70;79.70;;;;;;4138223;28;20077;-78
2021/12/28 07:09:10;;;;;;;59.45;24.90;;;0.80;79.90;;;;;;4094142;28;20039;-78
2021/12/28 07:11:14;;;;;;;59.42;23.80;;;0.70;79.90;;;;;;4128331;28;20101;-79
2021/12/28 07:13:14;;;;;;;60.97;24.80;;;0.90;80.10;;;;;;4094329;28;20035;-79
2021/12/28 07:15:16;;;;;;;62.20;24.50;;;0.80;79.90;;;;;;4124960;28;20117;-78
2021/12/28 07:17:17;;;;;;;60.42;23.88;;;0.80;79.80;;;;;;4098315;28;20023;-79
2021/12/28 07:19:18;;;;;;;56.85;23.90;;;0.80;79.90;;;;;;4107880;28;20113;-79
2021/12/28 07:21:18;;;;;;;64.47;25.73;;;0.80;79.90;;;;;;4111229;28;20065;-80
2021/12/28 07:23:19;;;;;;;55.33;24.48;;;0.80;79.70;;;;;;4130146;28;20399;-80
2021/12/28 07:25:24;;;;;;;65.00;24.75;;;0.80;79.70;;;;;;4130517;28;20030;-79
2021/12/28 07:27:25;;;;;;;63.95;26.13;;;0.80;79.70;;;;;;4130312;28;20134;-79
2021/12/28 07:29:26;;;;;;;62.75;24.85;;;0.80;79.70;;;;;;4099960;28;20020;-79
2021/12/28 07:31:27;;;;;;;58.88;25.00;;;0.80;79.60;;;;;;4129183;28;20035;-79
2021/12/28 07:33:28;;;;;;;66.93;25.63;;;0.90;79.70;;;;;;4118627;28;20513;-79
2021/12/28 07:35:29;;;;;;;62.50;25.77;;;0.80;79.60;;;;;;4102537;28;20031;-79
2021/12/28 07:37:30;;;;;;;59.78;24.83;;;0.90;79.60;;;;;;4099961;28;20041;-79
2021/12/28 07:39:31;;;;;;;64.15;25.23;;;0.80;79.60;;;;;;4130217;28;20443;-79
2021/12/28 07:41:32;;;;;;;59.78;24.05;;;0.80;79.60;;;;;;4106376;28;20075;-80
2021/12/28 07:43:32;;;;;;;56.58;23.48;;;0.90;79.60;;;;;;4132274;28;20022;-79
2021/12/28 07:45:33;;;;;;;60.90;24.90;;;0.90;79.60;;;;;;4134609;28;20037;-79
2021/12/28 07:47:34;;;;;;;61.03;24.40;;;0.90;79.60;;;;;;4149341;28;20026;-79
2021/12/28 07:49:34;;;;;;;60.33;24.35;;;0.90;79.60;;;;;;4145410;28;20174;-79
2021/12/28 07:51:35;;;;;;;58.85;25.63;;;0.90;79.60;;;;;;4133089;28;20025;-79
2021/12/28 07:53:35;;;;;;;62.38;24.60;;;0.80;80.30;;;;;;4132071;28;20027;-79
2021/12/28 07:55:36;;;;;;;62.80;24.85;;;0.90;79.60;;;;;;4128773;28;20026;-79
2021/12/28 07:57:37;;;;;;;60.38;23.85;;;0.90;79.60;;;;;;4132465;28;20054;-79
2021/12/28 07:59:38;;;;;;;61.58;25.58;;;1.00;79.60;;;;;;4133854;28;20041;-80
2021/12/28 08:01:38;;;;;;;60.17;25.70;;;0.90;79.50;;;;;;4144209;28;20412;-79
2021/12/28 08:03:39;;;;;;;62.75;25.20;;;0.90;79.60;;;;;;4134216;28;20034;-79
2021/12/28 08:05:40;;;;;;;62.97;25.52;;;0.90;79.60;;;;;;4120815;28;20049;-79
2021/12/28 08:07:40;;;;;;;61.65;25.75;;;0.90;79.60;;;;;;4132135;28;20116;-79
2021/12/28 08:09:41;;;;;;;64.20;24.33;;;0.90;79.60;;;;;;4132901;28;20041;-79
2021/12/28 08:11:42;;;;;;;63.42;24.45;;;0.90;79.60;;;;;;4130603;28;20371;-79
2021/12/28 08:13:43;;;;;;;56.75;23.33;;;1.00;79.70;;;;;;4131264;28;20037;-79
2021/12/28 08:15:44;;;;;;;63.03;24.02;;;1.00;79.70;;;;;;4146402;28;20042;-79
2021/12/28 08:17:44;;;;;;;62.08;25.02;;;1.00;79.70;;;;;;4100545;28;20050;-79
2021/12/28 08:19:45;;;;;;;59.22;24.25;;;1.10;80.50;;;;;;4134313;28;20508;-79
2021/12/28 08:21:46;;;;;;;52.58;23.17;;;1.00;79.70;;;;;;4128840;28;20076;-79
2021/12/28 08:23:46;;;;;;;58.10;24.45;;;1.00;79.70;;;;;;4129077;28;20034;-79
2021/12/28 08:25:47;;;;;;;56.55;22.88;;;1.10;79.60;;;;;;4128918;28;20038;-79
2021/12/28 08:27:48;;;;;;;59.15;24.20;;;1.10;79.60;;;;;;4111440;28;20117;-79
2021/12/28 08:29:48;;;;;;;60.20;24.83;;;1.10;79.50;;;;;;4130677;28;20134;-79
2021/12/28 08:31:49;;;;;;;61.38;26.45;;;1.10;79.50;;;;;;4128490;28;20122;-79
2021/12/28 08:33:49;;;;;;;60.15;23.42;;;1.10;79.40;;;;;;4129930;28;20041;-79
2021/12/28 08:35:50;;;;;;;60.92;24.10;;;1.10;79.40;;;;;;4128298;28;20117;-79
2021/12/28 08:37:51;;;;;;;62.03;25.00;;;1.10;79.30;;;;;;4129676;28;20054;-79
2021/12/28 08:39:51;;;;;;;55.35;24.35;;;1.10;79.20;;;;;;4144652;28;20034;-79
2021/12/28 08:41:52;;;;;;;57.08;23.90;;;1.10;79.30;;;;;;4113787;28;20126;-79
2021/12/28 08:43:54;;;;;;;61.78;25.17;;;1.20;79.40;;;;;;4111430;28;20081;-79
2021/12/28 08:45:54;;;;;;;60.38;24.80;;;1.20;79.40;;;;;;4132617;28;20034;-79
2021/12/28 08:47:55;;;;;;;59.45;24.40;;;1.10;79.20;;;;;;4129497;28;20041;-79
2021/12/28 08:49:56;;;;;;;67.45;24.13;;;1.10;79.30;;;;;;4113427;28;20050;-79
2021/12/28 08:51:57;;;;;;;58.35;24.83;;;1.20;79.40;;;;;;4133885;28;20112;-79
2021/12/28 08:53:58;;;;;;;64.65;25.65;;;1.20;79.30;;;;;;4130822;28;20038;-79
2021/12/28 08:55:58;;;;;;;60.17;24.92;;;1.20;79.40;;;;;;4142112;28;20026;-79
2021/12/28 08:57:59;;;;;;;63.60;25.35;;;1.20;79.40;;;;;;4111431;28;20037;-79
2021/12/28 09:00:00;;;;;;;58.97;25.48;;;1.20;79.40;;;;;;4147116;28;20132;-79
2021/12/28 09:02:00;;;;;;;62.47;25.73;;;1.10;79.40;;;;;;4148559;28;20148;-79
2021/12/28 09:04:01;;;;;;;64.50;26.75;;;1.10;79.50;;;;;;4116224;28;20118;-79
2021/12/28 09:06:02;;;;;;;61.90;25.65;;;1.10;79.50;;;;;;4134228;28;20507;-79
2021/12/28 09:08:06;;;;;;;58.67;24.27;;;1.10;79.70;;;;;;4136880;28;20105;-79
2021/12/28 09:10:07;;;;;;;63.47;25.48;;;1.00;79.70;;;;;;4148331;28;20029;-79
2021/12/28 09:12:08;;;;;;;56.17;24.42;;;1.00;79.70;;;;;;4146267;28;20029;-79
2021/12/28 09:14:08;;;;;;;63.53;25.02;;;1.00;80.60;;;;;;4093308;28;20035;-79
2021/12/28 09:16:09;;;;;;;55.90;25.02;;;1.00;79.90;;;;;;4144185;28;20064;-79
2021/12/28 09:18:10;;;;;;;64.47;25.83;;;1.10;80.10;;;;;;4129397;28;20034;-79
2021/12/28 09:20:15;;;;;;;59.58;24.38;;;1.10;80.20;;;;;;4109452;28;20053;-81
2021/12/28 09:22:16;;;;;;;53.28;23.88;;;1.00;80.30;;;;;;4125183;28;20104;-81
2021/12/28 09:24:16;;;;;;;66.13;25.77;;;1.00;80.50;;;;;;4132526;28;20039;-80
2021/12/28 09:26:17;;;;;;;57.75;24.10;;;1.00;80.50;;;;;;4132048;28;20053;-80
2021/12/28 09:28:18;;;;;;;63.85;23.63;;;1.10;80.50;;;;;;4119222;28;20030;-81
2021/12/28 09:30:19;;;;;;;57.22;25.52;;;1.00;80.50;;;;;;4128514;28;20031;-81
2021/12/28 09:32:20;;;;;;;68.82;26.25;;;1.10;80.50;;;;;;4139935;28;20034;-81
2021/12/28 09:34:20;;;;;;;58.15;25.88;;;1.10;80.40;;;;;;4129228;28;20080;-81
2021/12/28 09:36:21;;;;;;;59.22;24.83;;;1.10;80.40;;;;;;4124494;28;20046;-80
2021/12/28 09:38:22;;;;;;;55.67;24.52;;;1.20;80.50;;;;;;4127091;28;20038;-80
2021/12/28 09:40:23;;;;;;;58.00;25.15;;;1.10;81.10;;;;;;4142499;28;20025;-80
2021/12/28 09:42:23;;;;;;;62.13;26.40;;;1.10;80.40;;;;;;4126640;28;20065;-80
2021/12/28 09:44:24;;;;;;;68.03;26.63;;;1.20;80.40;;;;;;4107255;28;20047;-80
2021/12/28 09:46:25;;;;;;;66.75;26.40;;;1.20;80.40;;;;;;4127200;28;20038;-80
2021/12/28 09:48:25;;;;;;;62.03;25.80;;;1.10;80.40;;;;;;4100385;28;20046;-80
2021/12/28 09:50:26;;;;;;;60.50;25.23;;;1.10;80.40;;;;;;4098573;28;20043;-80
2021/12/28 09:52:27;;;;;;;62.83;26.15;;;1.10;81.20;;;;;;4081940;29;20046;-80
2021/12/28 09:54:28;;;;;;;65.55;26.40;;;1.10;80.50;;;;;;4111568;28;20026;-80
2021/12/28 09:56:29;;;;;;;65.57;25.27;;;1.10;80.50;;;;;;4100229;28;20031;-80
2021/12/28 09:58:32;;;;;;;63.50;27.17;;;1.10;81.20;;;;;;4091284;28;20390;-80
2021/12/28 10:00:33;;;;;;;60.47;26.08;;;1.10;80.40;;;;;;4125340;28;20085;-80
2021/12/28 10:02:35;;;;;;;56.58;25.33;;;1.10;80.40;;;;;;4123633;28;20027;-80
2021/12/28 10:04:59;;;;;;;59.13;26.08;;;1.10;80.40;;;;;;4141598;28;20073;-80
2021/12/28 10:07:23;;;;;;;65.35;27.13;;;1.10;80.50;;;;;;4117253;28;20094;-80
2021/12/28 10:09:24;;;;;;;54.13;25.65;;;1.10;80.50;;;;;;4126414;28;20618;-80
2021/12/28 10:11:39;;;;;;;61.13;25.45;;;1.10;80.50;;;;;;4117011;28;20125;-80
2021/12/28 10:13:39;;;;;;;64.88;26.63;;;1.10;80.50;;;;;;4109618;28;20133;-80
2021/12/28 10:15:40;;;;;;;66.05;26.42;;;1.10;80.70;;;;;;4115976;28;20035;-80
2021/12/28 10:17:43;;;;;;;64.57;26.55;;;1.20;80.80;;;;;;4128656;28;20092;-80
2021/12/28 10:19:44;;;;;;;55.03;25.03;;;1.20;80.90;;;;;;4110957;28;20041;-80
2021/12/28 10:21:45;;;;;;;55.95;24.73;;;1.20;81.70;;;;;;4130353;28;20054;-80
2021/12/28 10:23:46;;;;;;;66.35;25.33;;;1.20;80.90;;;;;;4128431;28;20587;-80
2021/12/28 10:25:51;;;;;;;64.57;25.88;;;1.20;80.90;;;;;;4130128;28;20034;-80
2021/12/28 10:27:53;;;;;;;62.60;25.92;;;1.30;81.00;;;;;;4118685;28;20038;-79